Time;durP1;ratioP1;P1;durP2;ratioP2;P2;SDS_P1;SDS_P2;PMS_P1;PMS_P2;Temp;Humidity;BMP_temperature;BMP_pressure;BME280_temperature;BME280_humidity;BME280_pressure;Samples;Min_cycle;Max_cycle;Signal;HPM_P1;HPM_P2
2021/01/06 00:00:52;;;;;;;54.65;25.20;;;;;;;-0.66;94.58;100642.16;1721324;81;21149;-49
2021/01/06 00:03:23;;;;;;;50.23;25.25;;;;;;;-0.67;94.57;100650.85;1729513;81;22116;-49
2021/01/06 00:05:56;;;;;;;52.23;24.63;;;;;;;-0.66;94.61;100660.78;1742467;81;22152;-49
2021/01/06 00:08:24;;;;;;;54.27;25.57;;;;;;;-0.67;94.59;100665.58;1732901;81;21145;-49
2021/01/06 00:10:54;;;;;;;51.65;23.95;;;;;;;-0.68;94.56;100650.88;1730628;81;21992;-49
2021/01/06 00:13:23;;;;;;;54.00;24.67;;;;;;;-0.65;94.65;100648.19;1748147;81;21194;-49
2021/01/06 00:15:50;;;;;;;53.58;23.25;;;;;;;-0.64;94.57;100648.16;1757556;81;20995;-49
2021/01/06 00:18:18;;;;;;;53.08;23.77;;;;;;;-0.66;94.49;100659.05;1749622;81;21137;-49
2021/01/06 00:20:47;;;;;;;55.35;26.37;;;;;;;-0.67;94.48;100658.66;1739743;81;21143;-49
2021/01/06 00:23:15;;;;;;;55.20;25.90;;;;;;;-0.68;94.49;100656.08;1729301;81;22044;-49
2021/01/06 00:25:43;;;;;;;57.35;27.42;;;;;;;-0.68;94.54;100665.19;1755590;81;22003;-49
2021/01/06 00:28:12;;;;;;;53.95;25.08;;;;;;;-0.69;94.43;100668.68;1751479;81;21146;-49
2021/01/06 00:30:47;;;;;;;56.05;28.38;;;;;;;-0.70;94.42;100674.34;1754488;81;21161;-49
2021/01/06 00:33:19;;;;;;;55.65;27.50;;;;;;;-0.71;94.39;100668.74;1762576;80;22011;-49
2021/01/06 00:36:06;;;;;;;53.65;26.82;;;;;;;-0.71;94.41;100662.25;1748598;81;22524;-49
2021/01/06 00:38:34;;;;;;;61.90;26.95;;;;;;;-0.70;94.43;100657.87;1745844;81;22137;-49
2021/01/06 00:41:01;;;;;;;53.78;25.37;;;;;;;-0.69;94.46;100657.84;1681235;82;21142;-49
2021/01/06 00:43:29;;;;;;;53.35;24.52;;;;;;;-0.70;94.43;100658.75;1753527;81;21137;-49
2021/01/06 00:45:57;;;;;;;54.63;26.62;;;;;;;-0.69;94.46;100653.08;1753373;81;21187;-49
2021/01/06 00:48:24;;;;;;;57.30;27.80;;;;;;;-0.67;94.48;100657.35;1758550;81;22171;-50
2021/01/06 00:50:53;;;;;;;51.48;24.72;;;;;;;-0.66;94.49;100650.39;1758018;81;21023;-49
2021/01/06 00:53:26;;;;;;;54.63;26.93;;;;;;;-0.65;94.48;100647.75;1737802;81;21185;-49
2021/01/06 00:55:55;;;;;;;52.60;25.02;;;;;;;-0.63;94.41;100645.09;1736951;81;21121;-49
2021/01/06 00:58:23;;;;;;;52.53;25.40;;;;;;;-0.62;94.41;100642.89;1757880;81;21125;-49
2021/01/06 01:00:53;;;;;;;54.40;25.25;;;;;;;-0.61;94.29;100647.20;1710110;82;22178;-49
2021/01/06 01:03:22;;;;;;;51.77;25.92;;;;;;;-0.60;94.31;100639.36;1699298;82;21171;-50
2021/01/06 01:05:52;;;;;;;51.08;24.20;;;;;;;-0.56;94.27;100637.97;1751250;81;21843;-49
2021/01/06 01:08:20;;;;;;;51.35;26.17;;;;;;;-0.55;94.17;100638.37;1755942;80;21772;-49
2021/01/06 01:10:51;;;;;;;48.87;25.65;;;;;;;-0.59;94.00;100628.50;1760515;81;21165;-49
2021/01/06 01:13:24;;;;;;;50.45;24.82;;;;;;;-0.58;94.01;100627.59;1753805;81;21439;-49
2021/01/06 01:15:55;;;;;;;50.05;23.02;;;;;;;-0.55;94.08;100628.80;1738486;81;21182;-49
2021/01/06 01:18:26;;;;;;;54.15;24.98;;;;;;;-0.51;94.06;100630.41;1754551;81;29629;-49
2021/01/06 01:20:57;;;;;;;50.43;25.27;;;;;;;-0.51;93.93;100626.94;1760709;81;21614;-48
2021/01/06 01:23:27;;;;;;;48.98;25.77;;;;;;;-0.52;93.90;100626.10;1759256;81;21142;-49
2021/01/06 01:25:55;;;;;;;46.10;25.43;;;;;;;-0.49;93.88;100616.91;1740156;81;22633;-48
2021/01/06 01:28:23;;;;;;;52.93;26.20;;;;;;;-0.47;93.87;100620.73;1733220;81;21138;-48
2021/01/06 01:30:53;;;;;;;51.68;26.02;;;;;;;-0.46;93.79;100612.03;1757039;81;21129;-49
2021/01/06 01:33:23;;;;;;;48.17;24.95;;;;;;;-0.46;93.64;100609.00;1754816;81;22169;-49
2021/01/06 01:35:53;;;;;;;52.50;27.05;;;;;;;-0.47;93.64;100608.60;1752896;81;21127;-49
2021/01/06 01:38:24;;;;;;;47.90;23.85;;;;;;;-0.45;93.67;100606.80;1756713;81;21957;-49
2021/01/06 01:41:06;;;;;;;50.45;24.82;;;;;;;-0.41;93.70;100603.63;1742232;81;21966;-49
2021/01/06 01:43:33;;;;;;;;;;;;;;;-0.43;93.51;100593.73;1757475;81;21118;-48
2021/01/06 01:46:07;;;;;;;48.73;24.63;;;;;;;-0.46;93.38;100604.23;1742791;81;20210;-48
2021/01/06 01:48:42;;;;;;;47.58;24.87;;;;;;;-0.50;93.44;100602.63;1751293;81;21476;-49
2021/01/06 01:51:39;;;;;;;51.90;26.62;;;;;;;-0.50;93.61;100596.13;1729377;81;21215;-49
2021/01/06 01:54:13;;;;;;;54.03;24.32;;;;;;;-0.49;93.63;100592.63;1752588;81;21646;-49
2021/01/06 01:56:58;;;;;;;48.63;24.15;;;;;;;-0.47;93.67;100593.00;1753431;81;21189;-49
2021/01/06 01:59:50;;;;;;;55.00;25.55;;;;;;;-0.46;93.62;100582.99;1753423;81;21113;-49
2021/01/06 02:02:25;;;;;;;51.77;26.93;;;;;;;-0.45;93.54;100585.13;1751814;81;21610;-49
2021/01/06 02:04:57;;;;;;;49.53;26.35;;;;;;;-0.48;93.44;100578.73;1756028;81;22202;-50
2021/01/06 02:07:27;;;;;;;55.38;27.82;;;;;;;-0.49;93.47;100577.03;1760250;81;21153;-49
2021/01/06 02:10:16;;;;;;;55.80;26.30;;;;;;;-0.52;93.45;100575.39;1753263;81;21020;-49
2021/01/06 02:13:05;;;;;;;48.63;25.85;;;;;;;-0.52;93.51;100586.23;1754034;81;21149;-49
2021/01/06 02:15:46;;;;;;;54.70;28.85;;;;;;;-0.53;93.65;100586.70;1746200;81;21149;-49
2021/01/06 02:18:14;;;;;;;52.75;26.33;;;;;;;-0.49;93.67;100587.00;1758811;81;22179;-49
2021/01/06 02:21:02;;;;;;;52.27;24.95;;;;;;;-0.48;93.65;100591.30;1756855;81;21169;-48
2021/01/06 02:23:37;;;;;;;52.80;27.32;;;;;;;-0.42;93.68;100586.80;1872858;76;22038;-49
2021/01/06 02:26:05;;;;;;;62.58;27.22;;;;;;;-0.45;93.61;100585.13;1831917;77;21054;-49
2021/01/06 02:28:33;;;;;;;55.85;28.40;;;;;;;-0.48;93.50;100583.50;1829751;77;22620;-49
2021/01/06 02:31:00;;;;;;;55.80;27.42;;;;;;;-0.46;93.64;100584.30;1771732;79;21006;-49
2021/01/06 02:33:28;;;;;;;55.08;27.22;;;;;;;-0.43;93.55;100582.49;1758772;79;21007;-49
2021/01/06 02:35:56;;;;;;;58.68;29.07;;;;;;;-0.44;93.45;100573.83;1774150;79;21988;-49
2021/01/06 02:38:23;;;;;;;57.83;30.25;;;;;;;-0.45;93.45;100582.09;1777836;79;20979;-49
2021/01/06 02:40:55;;;;;;;53.68;27.48;;;;;;;-0.45;93.46;100580.80;1783013;78;21191;-49
2021/01/06 02:43:23;;;;;;;57.27;29.32;;;;;;;-0.41;93.58;100577.62;1776075;78;28114;-49
2021/01/06 02:45:51;;;;;;;60.08;29.63;;;;;;;-0.38;93.50;100576.69;1779390;79;20993;-49
2021/01/06 02:48:20;;;;;;;62.20;29.67;;;;;;;-0.37;93.51;100572.72;1777569;80;21002;-49
2021/01/06 02:50:50;;;;;;;53.42;28.70;;;;;;;-0.33;93.46;100575.62;1779260;80;20990;-49
2021/01/06 02:53:26;;;;;;;56.90;27.40;;;;;;;-0.32;93.27;100579.09;1779698;80;22995;-49
2021/01/06 02:55:53;;;;;;;56.15;29.12;;;;;;;-0.33;93.12;100578.69;1753855;80;20964;-49
2021/01/06 02:58:23;;;;;;;61.23;29.98;;;;;;;-0.37;93.07;100572.72;1781229;79;21000;-49
2021/01/06 03:00:51;;;;;;;69.20;30.70;;;;;;;-0.38;93.11;100576.69;1794840;79;22104;-48
2021/01/06 03:03:20;;;;;;;65.40;30.02;;;;;;;-0.39;93.13;100578.42;1768355;79;21128;-49
2021/01/06 03:06:00;;;;;;;62.95;31.10;;;;;;;-0.39;93.16;100569.78;1759588;78;21365;-49
2021/01/06 03:08:27;;;;;;;66.92;32.23;;;;;;;-0.40;93.17;100574.59;1793038;78;21144;-50
2021/01/06 03:10:55;;;;;;;64.60;32.53;;;;;;;-0.41;93.19;100572.89;1803222;79;20967;-48
2021/01/06 03:13:23;;;;;;;68.12;34.13;;;;;;;-0.41;93.24;100573.72;1803167;79;21022;-48
2021/01/06 03:15:50;;;;;;;68.45;32.63;;;;;;;-0.38;93.33;100570.19;1776785;79;21775;-49
2021/01/06 03:18:18;;;;;;;66.50;31.80;;;;;;;-0.35;93.30;100570.08;1803410;79;21371;-49
2021/01/06 03:20:46;;;;;;;67.25;31.23;;;;;;;-0.36;93.16;100570.52;1803369;79;21634;-49
2021/01/06 03:23:19;;;;;;;65.45;30.88;;;;;;;-0.37;93.14;100570.59;1787354;78;20999;-49
2021/01/06 03:25:47;;;;;;;63.85;31.87;;;;;;;-0.35;93.16;100572.69;1783268;80;22068;-49
2021/01/06 03:28:16;;;;;;;65.15;29.82;;;;;;;-0.33;93.13;100568.28;1827909;77;20972;-49
2021/01/06 03:30:43;;;;;;;63.25;30.32;;;;;;;-0.31;93.13;100565.17;1827606;77;22066;-49
2021/01/06 03:33:40;;;;;;;68.40;29.72;;;;;;;-0.33;92.96;100563.91;1804491;78;20984;-49
2021/01/06 03:36:11;;;;;;;69.40;32.42;;;;;;;-0.34;92.94;100564.81;1738786;80;21126;-49
2021/01/06 03:38:46;;;;;;;76.70;33.75;;;;;;;-0.36;92.95;100569.69;1811912;78;20961;-49
2021/01/06 03:41:14;;;;;;;64.45;32.23;;;;;;;-0.37;92.98;100569.28;1802549;77;20933;-48
2021/01/06 03:43:50;;;;;;;71.22;29.20;;;;;;;-0.35;93.02;100570.08;1790677;78;21177;-49
2021/01/06 03:46:35;;;;;;;63.35;31.55;;;;;;;-0.34;92.97;100570.02;1784856;78;20984;-49
2021/01/06 03:49:36;;;;;;;70.72;32.55;;;;;;;-0.32;92.95;100563.02;1873603;76;22748;-48
2021/01/06 03:52:37;;;;;;;63.98;30.48;;;;;;;-0.34;93.03;100567.88;1835092;77;21049;-48
2021/01/06 03:55:25;;;;;;;84.03;35.15;;;;;;;-0.35;92.94;100560.52;1752208;80;21404;-48
2021/01/06 03:57:54;;;;;;;88.95;34.15;;;;;;;-0.35;92.92;100565.72;1802209;78;21522;-48
2021/01/06 04:00:33;;;;;;;75.20;32.93;;;;;;;-0.34;92.98;100567.88;1791386;78;21160;-48
2021/01/06 04:03:02;;;;;;;81.63;35.28;;;;;;;-0.36;92.92;100568.38;1784443;77;21182;-49
2021/01/06 04:05:30;;;;;;;74.20;34.92;;;;;;;-0.38;92.97;100577.52;1762666;80;20996;-48
2021/01/06 04:07:58;;;;;;;82.08;36.73;;;;;;;-0.37;93.05;100577.92;1778857;78;22182;-49
2021/01/06 04:10:30;;;;;;;73.30;33.50;;;;;;;-0.37;93.07;100566.69;1761465;79;21144;-48
2021/01/06 04:12:58;;;;;;;72.27;31.48;;;;;;;-0.39;93.01;100568.48;1761930;79;21001;-49
2021/01/06 04:15:25;;;;;;;79.00;34.95;;;;;;;-0.39;93.03;100552.88;1761324;79;20979;-49
2021/01/06 04:17:54;;;;;;;78.52;35.88;;;;;;;-0.38;93.14;100563.22;1761477;79;21032;-49
2021/01/06 04:20:40;;;;;;;73.07;33.78;;;;;;;-0.38;93.11;100561.91;1767198;78;21491;-49
2021/01/06 04:23:15;;;;;;;87.70;35.08;;;;;;;-0.35;93.15;100563.11;1776575;79;20993;-49
2021/01/06 04:25:45;;;;;;;82.62;36.33;;;;;;;-0.30;93.25;100564.27;1776850;79;20981;-49
2021/01/06 04:28:23;;;;;;;81.45;36.45;;;;;;;-0.30;93.11;100570.78;1783059;79;21139;-49
2021/01/06 04:30:57;;;;;;;73.55;35.90;;;;;;;-0.32;92.99;100560.41;1807879;78;20971;-49
2021/01/06 04:33:36;;;;;;;79.62;36.58;;;;;;;-0.32;93.06;100566.91;1807346;79;22368;-49
2021/01/06 04:36:08;;;;;;;66.85;30.77;;;;;;;-0.32;93.04;100568.68;1808343;79;20991;-49
2021/01/06 04:38:39;;;;;;;74.45;35.43;;;;;;;-0.31;93.00;100569.08;1816358;77;20975;-49
2021/01/06 04:41:36;;;;;;;72.82;33.63;;;;;;;-0.34;92.99;100574.39;1791536;78;21139;-49
2021/01/06 04:44:21;;;;;;;68.33;31.37;;;;;;;-0.34;93.03;100574.39;1790124;78;20928;-49
2021/01/06 04:47:25;;;;;;;80.05;35.05;;;;;;;-0.34;93.08;100578.29;1806728;77;22238;-49
2021/01/06 04:50:15;;;;;;;71.28;33.40;;;;;;;-0.31;93.15;100586.82;1785305;78;21007;-49
2021/01/06 04:53:00;;;;;;;73.67;33.08;;;;;;;-0.24;93.17;100587.91;1815099;77;21114;-49
2021/01/06 04:56:08;;;;;;;74.22;35.03;;;;;;;-0.22;92.99;100591.31;1791292;78;21137;-48
2021/01/06 04:59:17;;;;;;;76.72;34.48;;;;;;;-0.23;92.87;100593.08;1787675;78;20947;-48
2021/01/06 05:02:25;;;;;;;76.92;32.75;;;;;;;-0.20;92.88;100590.38;1788019;78;21209;-48
2021/01/06 05:05:17;;;;;;;66.20;30.30;;;;;;;-0.17;92.79;100592.02;1787439;78;21182;-49
2021/01/06 05:08:13;;;;;;;73.60;34.70;;;;;;;-0.14;92.73;100601.48;1796971;78;21948;-48
2021/01/06 05:10:58;;;;;;;69.00;31.20;;;;;;;-0.15;92.63;100599.31;1796404;78;22474;-48
2021/01/06 05:13:36;;;;;;;70.75;32.50;;;;;;;-0.14;92.51;100601.02;1796714;78;21140;-48
2021/01/06 05:16:34;;;;;;;81.47;33.42;;;;;;;-0.14;92.42;100598.88;1788549;78;22153;-49
2021/01/06 05:19:07;;;;;;;66.28;33.83;;;;;;;-0.18;92.39;100596.81;1800310;78;21625;-49
2021/01/06 05:21:34;;;;;;;69.45;30.65;;;;;;;-0.22;92.45;100603.89;1790381;78;20963;-49
2021/01/06 05:24:25;;;;;;;70.85;31.65;;;;;;;-0.20;92.54;100599.92;1796527;79;21603;-49
2021/01/06 05:27:16;;;;;;;69.45;31.52;;;;;;;-0.22;92.54;100599.98;1804032;79;21102;-49
2021/01/06 05:29:49;;;;;;;69.70;31.48;;;;;;;-0.22;92.57;100601.29;1796727;78;21738;-49
2021/01/06 05:32:31;;;;;;;67.92;30.57;;;;;;;-0.24;92.56;100603.09;1807385;77;21011;-48
2021/01/06 05:35:07;;;;;;;71.37;30.45;;;;;;;-0.24;92.68;100610.03;1808813;77;20987;-49
2021/01/06 05:37:36;;;;;;;70.17;33.23;;;;;;;-0.24;92.77;100613.50;1806928;77;21172;-49
2021/01/06 05:40:07;;;;;;;67.97;32.05;;;;;;;-0.25;92.82;100614.83;1812408;77;21086;-48
2021/01/06 05:42:44;;;;;;;64.62;30.75;;;;;;;-0.24;92.88;100610.03;1808208;78;21370;-48
2021/01/06 05:45:21;;;;;;;66.97;30.30;;;;;;;-0.19;92.98;100601.62;1833662;77;22828;-48
2021/01/06 05:47:57;;;;;;;;;;;;;;;-0.20;93.02;100611.19;1801658;78;21092;-50
2021/01/06 05:50:34;;;;;;;78.75;32.58;;;;;;;-0.20;92.97;100605.98;1809729;78;23505;-48
2021/01/06 05:53:07;;;;;;;57.62;27.13;;;;;;;-0.22;92.93;100609.09;1751174;81;21202;-48
2021/01/06 05:55:35;;;;;;;68.35;30.60;;;;;;;-0.20;92.93;100603.82;1769604;78;21220;-49
2021/01/06 05:58:18;;;;;;;73.22;31.85;;;;;;;-0.21;92.89;100606.02;1785603;78;21062;-49
2021/01/06 06:01:08;;;;;;;72.60;30.40;;;;;;;-0.22;92.89;100606.92;1719219;79;21224;-49
2021/01/06 06:03:50;;;;;;;69.05;30.02;;;;;;;-0.24;92.98;100609.59;1782875;78;21723;-48
2021/01/06 06:06:53;;;;;;;69.03;30.17;;;;;;;-0.20;93.17;100603.39;1751054;78;21094;-49
2021/01/06 06:10:06;;;;;;;64.62;30.43;;;;;;;-0.15;93.16;100612.32;1749349;79;21081;-48
2021/01/06 06:13:04;;;;;;;69.97;32.33;;;;;;;-0.10;93.15;100606.98;1807300;78;21240;-48
2021/01/06 06:15:40;;;;;;;69.17;31.95;;;;;;;-0.08;93.06;100613.81;1793684;78;21176;-48
2021/01/06 06:18:19;;;;;;;72.00;30.55;;;;;;;-0.08;92.88;100620.32;1804845;78;21210;-49
2021/01/06 06:21:09;;;;;;;66.67;30.70;;;;;;;-0.06;92.95;100625.02;1763281;78;21240;-49
2021/01/06 06:24:19;;;;;;;70.37;32.28;;;;;;;-0.02;92.96;100624.48;1762093;78;21179;-49
2021/01/06 06:27:27;;;;;;;75.70;32.65;;;;;;;-0.06;92.67;100626.33;1758388;78;21038;-49
2021/01/06 06:30:12;;;;;;;76.10;34.00;;;;;;;-0.09;92.74;100633.40;1752028;79;21752;-49
2021/01/06 06:32:42;;;;;;;74.42;32.75;;;;;;;-0.12;92.71;100634.80;1768868;80;21508;-49
2021/01/06 06:35:38;;;;;;;73.33;31.12;;;;;;;-0.17;92.81;100628.44;1737169;80;21244;-49
2021/01/06 06:38:07;;;;;;;80.60;34.80;;;;;;;-0.16;92.92;100636.20;1769120;80;21179;-49
2021/01/06 06:41:04;;;;;;;75.50;33.23;;;;;;;-0.17;92.95;100634.50;1785936;79;21829;-48
2021/01/06 06:43:42;;;;;;;83.87;31.42;;;;;;;-0.16;93.00;100637.51;1765575;80;21205;-49
2021/01/06 06:46:41;;;;;;;73.35;32.90;;;;;;;-0.14;93.14;100632.70;1768435;80;21268;-50
2021/01/06 06:49:26;;;;;;;71.62;30.25;;;;;;;-0.18;93.10;100623.70;1763763;80;21900;-48
2021/01/06 06:52:02;;;;;;;79.92;32.33;;;;;;;-0.18;93.17;100625.00;1756324;80;21511;-49
2021/01/06 06:55:22;;;;;;;72.58;30.97;;;;;;;-0.18;93.24;100624.13;1758097;79;21236;-49
2021/01/06 06:58:34;;;;;;;86.42;34.30;;;;;;;-0.17;93.24;100626.70;1770525;79;21217;-49
2021/01/06 07:01:24;;;;;;;75.95;33.53;;;;;;;-0.20;93.25;100628.53;1679565;83;21745;-48
2021/01/06 07:04:04;;;;;;;68.67;31.57;;;;;;;-0.13;93.42;100632.64;1847070;75;23015;-48
2021/01/06 07:06:31;;;;;;;;;;;;;;;-0.14;93.48;100632.70;1787960;78;21200;-49
2021/01/06 07:09:00;;;;;;;77.05;32.00;;;;;;;-0.10;93.50;100628.62;1781865;78;21347;-49
2021/01/06 07:11:39;;;;;;;74.42;30.90;;;;;;;-0.06;93.54;100629.39;1791322;77;21011;-49
2021/01/06 07:14:22;;;;;;;70.55;32.42;;;;;;;-0.05;93.47;100623.28;1789522;78;21375;-49
2021/01/06 07:16:58;;;;;;;78.83;33.88;;;;;;;-0.04;93.44;100624.98;1787569;78;22092;-48
2021/01/06 07:19:37;;;;;;;72.45;31.27;;;;;;;-0.04;93.35;100627.13;1789507;78;21037;-48
2021/01/06 07:22:31;;;;;;;76.87;30.77;;;;;;;-0.02;93.50;100629.22;1789944;78;21256;-48
2021/01/06 07:25:07;;;;;;;86.10;32.40;;;;;;;0.01;93.39;100633.92;1782979;78;21164;-48
2021/01/06 07:27:41;;;;;;;76.97;34.10;;;;;;;0.06;93.35;100626.34;1858192;76;23183;-49
2021/01/06 07:30:11;;;;;;;73.35;32.13;;;;;;;0.01;93.31;100628.25;1799979;77;21548;-49
2021/01/06 07:32:42;;;;;;;80.05;32.58;;;;;;;0.05;93.45;100632.45;1767071;78;21314;-49
2021/01/06 07:35:22;;;;;;;75.70;31.30;;;;;;;0.08;93.34;100634.95;1802470;77;20955;-49
2021/01/06 07:38:06;;;;;;;78.00;31.55;;;;;;;0.09;93.16;100631.44;1803657;77;20979;-49
2021/01/06 07:40:40;;;;;;;71.65;31.85;;;;;;;0.05;93.05;100629.84;1800808;78;21049;-49
2021/01/06 07:43:17;;;;;;;75.50;32.40;;;;;;;0.04;93.21;100630.75;1782593;79;20994;-49
2021/01/06 07:45:56;;;;;;;78.85;34.58;;;;;;;0.09;93.31;100628.84;1783059;78;22126;-49
2021/01/06 07:48:41;;;;;;;68.90;30.55;;;;;;;0.17;93.41;100635.53;1772863;78;21943;-49
2021/01/06 07:51:17;;;;;;;84.75;36.50;;;;;;;0.26;93.64;100644.33;1787130;79;21895;-49
2021/01/06 07:54:04;;;;;;;86.15;32.65;;;;;;;0.30;93.38;100644.61;1798384;77;21629;-49
2021/01/06 07:56:43;;;;;;;78.00;28.92;;;;;;;0.33;93.24;100639.30;1769109;78;21686;-49
2021/01/06 07:59:24;;;;;;;72.30;28.65;;;;;;;0.34;93.11;100641.00;1803172;78;21407;-49
2021/01/06 08:02:10;;;;;;;71.45;29.12;;;;;;;0.31;93.03;100655.89;1796247;79;20999;-49
2021/01/06 08:05:00;;;;;;;75.17;29.42;;;;;;;0.25;92.99;100648.70;1795395;78;21601;-49
2021/01/06 08:07:28;;;;;;;75.05;29.00;;;;;;;0.26;93.21;100654.30;1797485;79;21126;-49
2021/01/06 08:09:55;;;;;;;89.77;32.78;;;;;;;0.27;93.25;100653.40;1799697;77;21122;-49
2021/01/06 08:12:40;;;;;;;92.62;34.10;;;;;;;0.28;93.34;100655.10;1793131;77;21325;-49
2021/01/06 08:15:22;;;;;;;79.95;31.45;;;;;;;0.31;93.25;100655.42;1754515;80;21134;-49
2021/01/06 08:18:09;;;;;;;74.17;31.90;;;;;;;0.31;93.12;100660.64;1796477;78;21125;-49
2021/01/06 08:20:41;;;;;;;83.65;31.73;;;;;;;0.29;93.07;100659.84;1798463;79;21118;-49
2021/01/06 08:23:25;;;;;;;81.28;30.52;;;;;;;0.29;93.14;100661.14;1805159;78;21588;-48
2021/01/06 08:26:04;;;;;;;90.38;35.40;;;;;;;0.32;93.29;100664.94;1801772;78;21357;-48
2021/01/06 08:28:32;;;;;;;85.65;32.75;;;;;;;0.29;93.14;100662.44;1794135;77;20995;-49
2021/01/06 08:31:20;;;;;;;98.70;41.33;;;;;;;0.26;93.20;100662.55;1816922;77;20971;-49
2021/01/06 08:33:56;;;;;;;97.72;39.23;;;;;;;0.17;93.20;100656.36;1803682;77;21137;-49
2021/01/06 08:36:31;;;;;;;88.90;33.35;;;;;;;0.13;93.47;100653.86;1804864;79;21617;-49
2021/01/06 08:39:15;;;;;;;78.83;31.10;;;;;;;0.14;93.60;100657.33;1767943;79;21370;-49
2021/01/06 08:41:43;;;;;;;88.82;35.75;;;;;;;0.13;93.66;100656.47;1802418;79;20956;-49
2021/01/06 08:44:34;;;;;;;82.55;31.42;;;;;;;0.12;93.72;100657.83;1798543;79;21003;-49
2021/01/06 08:47:05;;;;;;;66.97;28.10;;;;;;;0.22;94.15;100653.14;1798101;77;22066;-49
2021/01/06 08:49:35;;;;;;;80.10;30.55;;;;;;;0.22;94.15;100653.14;1804368;77;21594;-49
2021/01/06 08:52:22;;;;;;;76.97;30.65;;;;;;;0.24;93.97;100657.84;1804059;77;22875;-48
2021/01/06 08:55:26;;;;;;;80.95;32.25;;;;;;;0.27;94.07;100662.95;1765189;79;20988;-48
2021/01/06 08:57:57;;;;;;;93.75;35.52;;;;;;;0.28;94.06;100668.55;1802849;79;20983;-48
2021/01/06 09:00:44;;;;;;;98.12;37.45;;;;;;;0.29;94.14;100662.44;1799871;77;21717;-49
2021/01/06 09:03:35;;;;;;;90.03;34.53;;;;;;;0.33;94.20;100662.73;1798957;77;21307;-49
2021/01/06 09:06:17;;;;;;;82.93;32.07;;;;;;;0.38;94.13;100656.91;1791869;78;21135;-49
2021/01/06 09:08:51;;;;;;;;;;;;;;;0.38;93.93;100663.42;1807181;78;22069;-49
2021/01/06 09:11:46;;;;;;;77.42;27.55;;;;;;;0.34;93.94;100657.92;1792641;78;20912;-49
2021/01/06 09:14:36;;;;;;;80.40;31.35;;;;;;;0.38;94.12;100656.91;1800828;78;20964;-49
2021/01/06 09:17:26;;;;;;;79.70;31.87;;;;;;;0.37;93.95;100664.33;1802027;78;20987;-48
2021/01/06 09:20:13;;;;;;;80.80;32.17;;;;;;;0.35;93.98;100658.32;1774642;79;22753;-49
2021/01/06 09:22:42;;;;;;;66.45;26.97;;;;;;;0.40;94.12;100655.58;1800104;79;21593;-49
2021/01/06 09:25:15;;;;;;;77.20;29.98;;;;;;;0.44;94.22;100655.39;1796178;77;20980;-49
2021/01/06 09:27:45;;;;;;;83.60;32.55;;;;;;;0.48;94.23;100652.25;1788424;79;21105;-49
2021/01/06 09:30:34;;;;;;;80.12;30.77;;;;;;;0.48;94.07;100653.98;1804183;79;21122;-49
2021/01/06 09:33:04;;;;;;;78.25;30.85;;;;;;;0.49;94.07;100655.25;1804650;79;23094;-49
2021/01/06 09:35:33;;;;;;;77.32;32.17;;;;;;;0.50;94.03;100655.64;1768874;79;21142;-49
2021/01/06 09:38:27;;;;;;;69.32;30.32;;;;;;;0.49;94.02;100653.08;1804483;79;21606;-49
2021/01/06 09:40:59;;;;;;;70.85;28.80;;;;;;;0.52;94.09;100657.74;1794052;78;20979;-48
2021/01/06 09:43:44;;;;;;;;;;;;;;;0.54;94.02;100653.77;1792115;77;22042;-50
2021/01/06 09:46:36;;;;;;;81.42;30.30;;;;;;;0.50;93.97;100649.13;1802958;77;23060;-48
2021/01/06 09:49:08;;;;;;;75.47;28.85;;;;;;;0.54;94.27;100647.25;1804378;78;20995;-50
2021/01/06 09:51:38;;;;;;;79.55;30.35;;;;;;;0.58;94.24;100647.54;1787582;77;21081;-49
2021/01/06 09:54:06;;;;;;;71.00;29.12;;;;;;;0.55;94.09;100641.14;1800824;78;21137;-48
2021/01/06 09:56:34;;;;;;;72.17;30.50;;;;;;;0.54;94.03;100645.95;1800168;77;21491;-49
2021/01/06 09:59:04;;;;;;;62.95;27.65;;;;;;;0.51;93.96;100644.32;1818101;77;21185;-49
2021/01/06 10:02:00;;;;;;;66.40;28.50;;;;;;;0.53;94.09;100645.55;1770026;78;21961;-49
2021/01/06 10:04:32;;;;;;;58.92;26.73;;;;;;;0.56;94.17;100642.84;1713225;81;20995;-48
2021/01/06 10:07:40;;;;;;;69.20;29.25;;;;;;;0.60;94.10;100643.13;1760917;81;21147;-49
2021/01/06 10:10:24;;;;;;;68.75;28.40;;;;;;;0.61;94.04;100644.83;1746569;81;21161;-49
2021/01/06 10:13:15;;;;;;;65.85;29.30;;;;;;;0.57;93.85;100645.84;1746442;81;22779;-49
2021/01/06 10:16:09;;;;;;;67.12;27.93;;;;;;;0.51;93.86;100640.84;1756293;81;21117;-48
2021/01/06 10:19:10;;;;;;;65.50;27.05;;;;;;;0.49;94.01;100638.31;1732310;81;21156;-49
2021/01/06 10:21:54;;;;;;;66.47;26.70;;;;;;;0.50;94.10;100639.16;1750943;79;21282;-49
2021/01/06 10:24:50;;;;;;;;;;;;;;;0.51;94.16;100634.34;1751656;81;21065;-48
2021/01/06 10:27:43;;;;;;;69.30;27.85;;;;;;;0.52;94.09;100639.95;1724926;81;21393;-49
2021/01/06 10:30:15;;;;;;;65.95;29.42;;;;;;;0.52;94.20;100642.55;1724333;81;21152;-50
2021/01/06 10:32:49;;;;;;;64.72;27.07;;;;;;;0.55;94.19;100639.84;1754123;81;20998;-50
2021/01/06 10:35:32;;;;;;;65.30;27.27;;;;;;;0.54;94.12;100644.65;1754376;79;21117;-48
2021/01/06 10:38:22;;;;;;;55.15;24.45;;;;;;;0.57;94.15;100640.63;1756475;81;20948;-49
2021/01/06 10:40:53;;;;;;;59.65;27.25;;;;;;;0.64;94.18;100642.11;1757228;79;21212;-49
2021/01/06 10:43:48;;;;;;;55.77;25.50;;;;;;;0.68;93.83;100648.04;1755106;81;20959;-49
2021/01/06 10:46:40;;;;;;;61.08;25.48;;;;;;;0.68;93.83;100648.04;1798305;79;21502;-49
2021/01/06 10:49:26;;;;;;;54.40;21.73;;;;;;;0.63;93.69;100646.92;1799935;77;21531;-49
2021/01/06 10:52:03;;;;;;;61.63;26.12;;;;;;;0.64;93.76;100644.71;1807162;79;21609;-49
2021/01/06 10:54:39;;;;;;;51.60;23.35;;;;;;;0.64;93.60;100644.71;1799692;79;21203;-49
2021/01/06 10:57:39;;;;;;;53.33;23.25;;;;;;;0.66;93.56;100647.24;1805976;79;21472;-48
2021/01/06 11:00:21;;;;;;;72.25;30.92;;;;;;;0.72;93.48;100642.67;1846906;76;22229;-49
2021/01/06 11:03:24;;;;;;;72.80;30.90;;;;;;;0.66;93.42;100637.69;1806657;76;21515;-48
2021/01/06 11:06:07;;;;;;;66.80;29.02;;;;;;;0.70;93.46;100640.58;1807978;77;22521;-49
2021/01/06 11:08:57;;;;;;;59.98;26.20;;;;;;;0.72;93.41;100641.38;1821565;77;21053;-49
2021/01/06 11:11:53;;;;;;;69.95;28.23;;;;;;;0.78;93.48;100638.98;1744060;80;20983;-49
2021/01/06 11:14:49;;;;;;;64.05;26.82;;;;;;;0.79;93.32;100641.14;1753692;80;21062;-49
2021/01/06 11:17:41;;;;;;;59.50;24.45;;;;;;;0.84;93.37;100641.35;1745901;80;21533;-49
2021/01/06 11:20:34;;;;;;;65.95;28.30;;;;;;;0.83;93.21;100653.16;1754122;80;22844;-49
2021/01/06 11:23:29;;;;;;;56.85;26.45;;;;;;;0.81;93.22;100652.36;1742854;80;21095;-50
2021/01/06 11:26:19;;;;;;;63.17;28.00;;;;;;;0.86;93.38;100656.95;1753844;80;21253;-48
2021/01/06 11:29:01;;;;;;;77.42;32.38;;;;;;;0.95;93.63;100654.00;1741511;80;21117;-49
2021/01/06 11:31:31;;;;;;;96.02;40.85;;;;;;;1.02;93.62;100654.16;1693630;81;21111;-48
2021/01/06 11:34:17;;;;;;;99.50;44.70;;;;;;;1.10;93.45;100659.52;1743889;81;22595;-50
2021/01/06 11:36:52;;;;;;;80.40;33.48;;;;;;;1.11;93.16;100658.60;1765995;80;21009;-49
2021/01/06 11:39:41;;;;;;;62.45;28.15;;;;;;;1.13;93.05;100647.22;1742902;81;21483;-49
2021/01/06 11:42:20;;;;;;;57.78;28.25;;;;;;;1.18;92.97;100652.24;1763125;80;21569;-53
2021/01/06 11:45:12;;;;;;;65.47;28.23;;;;;;;1.25;92.90;100651.09;1769569;80;20985;-49
2021/01/06 11:47:59;;;;;;;57.00;23.98;;;;;;;1.32;92.37;100650.42;1767476;80;21378;-49
2021/01/06 11:50:44;;;;;;;62.08;26.33;;;;;;;1.32;92.37;100650.42;1737604;80;21624;-49
2021/01/06 11:53:19;;;;;;;128.97;52.98;;;;;;;1.33;92.33;100656.86;1723549;81;21015;-49
2021/01/06 11:55:51;;;;;;;99.92;49.70;;;;;;;1.28;91.98;100644.45;1741254;81;21445;-49
2021/01/06 11:58:28;;;;;;;63.78;29.55;;;;;;;1.27;91.84;100633.63;1684073;81;21129;-48
2021/01/06 12:01:24;;;;;;;57.67;27.98;;;;;;;1.25;91.86;100628.94;1717733;81;21923;-49
2021/01/06 12:04:34;;;;;;;59.53;27.80;;;;;;;1.23;91.74;100630.75;1715938;81;22190;-49
2021/01/06 12:07:31;;;;;;;60.17;28.67;;;;;;;1.26;91.89;100635.02;1732619;81;21003;-49
2021/01/06 12:10:10;;;;;;;66.97;33.42;;;;;;;1.31;91.95;100636.98;1761587;80;20962;-48